createdAt,value
2023-07-31T00:00:44.286Z,18.06
2023-07-31T00:01:45.163Z,18.19
2023-07-31T00:02:46.330Z,18.05
2023-07-31T00:03:46.772Z,18.02
2023-07-31T00:04:46.940Z,18.02
2023-07-31T00:05:47.474Z,18
2023-07-31T00:06:48.837Z,18.05
2023-07-31T00:07:49.534Z,18.03
2023-07-31T00:08:50.269Z,18.09
2023-07-31T00:09:51.323Z,18.09
2023-07-31T00:10:52.054Z,18.06
2023-07-31T00:11:52.882Z,18.05
2023-07-31T00:12:53.807Z,18.09
2023-07-31T00:13:53.746Z,18.05
2023-07-31T00:14:54.894Z,18.02
2023-07-31T00:15:55.508Z,18.03
2023-07-31T00:16:58.282Z,18
2023-07-31T00:18:56.427Z,17.95
2023-07-31T00:19:57.612Z,17.98
2023-07-31T00:20:58.179Z,17.95
2023-07-31T00:21:58.589Z,17.98
2023-07-31T00:22:59.538Z,17.97
2023-07-31T00:24:00.102Z,17.98
2023-07-31T00:25:01.121Z,18
2023-07-31T00:26:01.033Z,18.03
2023-07-31T00:27:01.530Z,17.98
2023-07-31T00:28:02.345Z,17.91
2023-07-31T00:29:02.850Z,17.93
2023-07-31T00:30:03.628Z,17.78
2023-07-31T00:31:04.659Z,17.79
2023-07-31T00:32:05.397Z,17.9
2023-07-31T00:33:06.040Z,17.8
2023-07-31T00:34:06.755Z,17.72
2023-07-31T00:35:07.262Z,17.73
2023-07-31T00:36:07.974Z,17.73
2023-07-31T00:37:08.701Z,17.71
2023-07-31T00:38:08.830Z,17.69
2023-07-31T00:39:09.534Z,17.68
2023-07-31T00:40:10.327Z,17.63
2023-07-31T00:41:11.079Z,17.68
2023-07-31T00:42:12.102Z,17.69
2023-07-31T00:43:12.438Z,17.69
2023-07-31T00:44:13.058Z,17.52
2023-07-31T00:45:13.866Z,17.57
2023-07-31T00:46:15.052Z,17.53
2023-07-31T00:47:15.764Z,17.42
2023-07-31T00:48:16.750Z,17.44
2023-07-31T00:49:17.068Z,17.49
2023-07-31T00:50:17.610Z,17.41
2023-07-31T00:51:18.100Z,17.37
2023-07-31T00:52:19.175Z,17.35
2023-07-31T00:53:19.680Z,17.35
2023-07-31T00:54:19.795Z,17.37
2023-07-31T00:55:20.389Z,17.32
2023-07-31T00:56:20.952Z,17.39
2023-07-31T00:57:21.930Z,17.24
2023-07-31T00:58:22.273Z,17.22
2023-07-31T00:59:23.020Z,17.22
2023-07-31T01:00:24.019Z,17.22
2023-07-31T01:01:24.718Z,17.22
2023-07-31T01:02:25.609Z,17.22
2023-07-31T01:03:25.808Z,17.07
2023-07-31T01:04:26.665Z,17.12
2023-07-31T01:05:27.619Z,17.13
2023-07-31T01:06:28.398Z,17.02
2023-07-31T01:07:29.396Z,17.07
2023-07-31T01:08:30.534Z,17.02
2023-07-31T01:09:31.438Z,16.97
2023-07-31T01:10:32.218Z,16.97
2023-07-31T01:11:32.161Z,16.92
2023-07-31T01:12:32.999Z,16.99
2023-07-31T01:13:33.101Z,16.94
2023-07-31T01:14:33.616Z,16.91
2023-07-31T01:15:34.582Z,16.86
2023-07-31T01:16:35.527Z,16.91
2023-07-31T01:17:35.606Z,16.82
2023-07-31T01:18:36.211Z,16.92
2023-07-31T01:19:37.109Z,16.83
2023-07-31T01:20:37.027Z,16.84
2023-07-31T01:21:38.144Z,16.74
2023-07-31T01:22:39.010Z,16.77
2023-07-31T01:23:38.718Z,16.83
2023-07-31T01:24:38.857Z,16.8
2023-07-31T01:25:40.208Z,16.86
2023-07-31T01:26:41.931Z,16.79
2023-07-31T01:27:41.310Z,16.83
2023-07-31T01:28:42.381Z,16.83
2023-07-31T01:29:43.087Z,16.79
2023-07-31T01:30:44.121Z,16.77
2023-07-31T01:31:44.447Z,16.74
2023-07-31T01:32:44.981Z,16.79
2023-07-31T01:33:45.177Z,16.8
2023-07-31T01:34:45.885Z,16.77
2023-07-31T01:35:46.632Z,16.76
2023-07-31T01:36:47.842Z,16.72
2023-07-31T01:37:47.678Z,16.72
2023-07-31T01:38:48.649Z,16.77
2023-07-31T01:39:49.160Z,16.72
2023-07-31T01:40:49.698Z,16.74
2023-07-31T01:41:50.447Z,16.69
2023-07-31T01:42:51.707Z,16.65
2023-07-31T01:43:52.578Z,16.66
2023-07-31T01:44:53.101Z,16.72
2023-07-31T01:45:53.832Z,16.72
2023-07-31T01:46:54.622Z,16.65
2023-07-31T01:47:55.519Z,16.69
2023-07-31T01:48:56.337Z,16.65
2023-07-31T01:49:57.123Z,16.62
2023-07-31T01:50:57.654Z,16.62
2023-07-31T01:51:58.587Z,16.61
2023-07-31T01:52:59.394Z,16.65
2023-07-31T01:54:00.175Z,16.57
2023-07-31T01:55:00.897Z,16.57
2023-07-31T01:56:01.633Z,16.59
2023-07-31T01:57:02.556Z,16.59
2023-07-31T01:58:02.751Z,16.58
2023-07-31T01:59:02.896Z,16.55
2023-07-31T02:00:03.830Z,16.54
2023-07-31T02:01:03.998Z,16.55
2023-07-31T02:02:04.783Z,16.49
2023-07-31T02:03:05.758Z,16.49
2023-07-31T02:04:05.878Z,16.59
2023-07-31T02:05:06.653Z,16.51
2023-07-31T02:06:07.665Z,16.55
2023-07-31T02:07:07.381Z,16.43
2023-07-31T02:08:10.173Z,16.54
2023-07-31T02:10:09.186Z,16.43
2023-07-31T02:11:09.698Z,16.49
2023-07-31T02:12:10.880Z,16.39
2023-07-31T02:13:11.708Z,16.5
2023-07-31T02:14:12.595Z,16.4
2023-07-31T02:15:13.337Z,16.4
2023-07-31T02:16:14.611Z,16.4
2023-07-31T02:17:15.002Z,16.36
2023-07-31T02:18:15.738Z,16.39
2023-07-31T02:19:16.487Z,16.37
2023-07-31T02:20:17.417Z,16.39
2023-07-31T02:21:17.989Z,16.31
2023-07-31T02:22:18.501Z,16.41
2023-07-31T02:23:19.323Z,16.32
2023-07-31T02:24:20.074Z,16.26
2023-07-31T02:25:20.789Z,16.29
2023-07-31T02:26:21.537Z,16.31
2023-07-31T02:27:22.299Z,16.24
2023-07-31T02:28:23.017Z,16.24
2023-07-31T02:29:23.181Z,16.24
2023-07-31T02:30:23.956Z,16.22
2023-07-31T02:31:27.993Z,16.21
2023-07-31T02:34:27.731Z,16.21
2023-07-31T02:35:28.426Z,16.16
2023-07-31T02:36:28.367Z,16.13
2023-07-31T02:37:28.264Z,16.06
2023-07-31T02:38:29.224Z,16.06
2023-07-31T02:39:29.762Z,16.09
2023-07-31T02:40:30.548Z,16.08
2023-07-31T02:41:30.498Z,15.98
2023-07-31T02:42:31.414Z,15.94
2023-07-31T02:43:31.790Z,15.99
2023-07-31T02:44:32.513Z,15.98
2023-07-31T02:45:33.355Z,15.98
2023-07-31T02:46:33.746Z,15.94
2023-07-31T02:47:34.087Z,15.99
2023-07-31T02:48:33.968Z,15.99
2023-07-31T02:49:34.712Z,15.96
2023-07-31T02:50:34.634Z,15.92
2023-07-31T02:51:35.461Z,15.84
2023-07-31T02:52:36.307Z,15.84
2023-07-31T02:53:36.753Z,15.85
2023-07-31T02:54:37.248Z,15.85
2023-07-31T02:55:37.758Z,15.87
2023-07-31T02:56:39.199Z,15.9
2023-07-31T02:57:39.721Z,15.84
2023-07-31T02:58:40.443Z,15.84
2023-07-31T02:59:41.365Z,15.83
2023-07-31T03:00:41.893Z,15.83
2023-07-31T03:01:42.855Z,15.81
2023-07-31T03:02:43.021Z,15.67
2023-07-31T03:03:44.561Z,15.84
2023-07-31T03:04:44.509Z,15.73
2023-07-31T03:05:45.234Z,15.81
2023-07-31T03:06:46.673Z,15.81
2023-07-31T03:07:46.992Z,15.7
2023-07-31T03:08:47.750Z,15.73
2023-07-31T03:09:48.280Z,15.8
2023-07-31T03:10:48.797Z,15.76
2023-07-31T03:11:49.830Z,15.65
2023-07-31T03:12:50.589Z,15.75
2023-07-31T03:13:50.831Z,15.66
2023-07-31T03:14:51.158Z,15.72
2023-07-31T03:15:51.989Z,15.66
2023-07-31T03:16:53.078Z,15.62
2023-07-31T03:17:53.980Z,15.65
2023-07-31T03:18:53.857Z,15.66
2023-07-31T03:19:54.781Z,15.6
2023-07-31T03:20:55.550Z,15.59
2023-07-31T03:21:56.315Z,15.55
2023-07-31T03:22:56.839Z,15.55
2023-07-31T03:23:57.312Z,15.55
2023-07-31T03:24:58.261Z,15.57
2023-07-31T03:25:59.221Z,15.55
2023-07-31T03:26:59.163Z,15.59
2023-07-31T03:28:00.496Z,15.54
2023-07-31T03:29:01.298Z,15.55
2023-07-31T03:30:02.099Z,15.59
2023-07-31T03:31:02.536Z,15.5
2023-07-31T03:32:03.586Z,15.47
2023-07-31T03:33:03.834Z,15.41
2023-07-31T03:34:04.336Z,15.57
2023-07-31T03:35:05.447Z,15.55
2023-07-31T03:36:06.170Z,15.45
2023-07-31T03:37:06.519Z,15.57
2023-07-31T03:38:07.036Z,15.48
2023-07-31T03:39:08.224Z,15.39
2023-07-31T03:40:08.769Z,15.48
2023-07-31T03:41:09.294Z,15.45
2023-07-31T03:42:10.046Z,15.47
2023-07-31T03:43:10.803Z,15.43
2023-07-31T03:44:11.221Z,15.45
2023-07-31T03:45:12.142Z,15.41
2023-07-31T03:46:12.142Z,15.43
2023-07-31T03:47:13.357Z,15.44
2023-07-31T03:48:13.317Z,15.41
2023-07-31T03:49:13.835Z,15.43
2023-07-31T03:50:14.386Z,15.27
2023-07-31T03:51:14.573Z,15.36
2023-07-31T03:52:15.398Z,15.39
2023-07-31T03:53:16.351Z,15.27
2023-07-31T03:54:17.221Z,15.29
2023-07-31T03:55:17.804Z,15.26
2023-07-31T03:56:18.934Z,15.26
2023-07-31T03:57:19.298Z,15.3
2023-07-31T03:58:20.544Z,15.33
2023-07-31T03:59:20.280Z,15.26
2023-07-31T04:00:21.210Z,15.14
2023-07-31T04:01:21.437Z,15.23
2023-07-31T04:02:22.219Z,15.17
2023-07-31T04:03:23.026Z,15.14
2023-07-31T04:04:23.811Z,15.23
2023-07-31T04:05:24.442Z,15.18
2023-07-31T04:06:25.317Z,15.14
2023-07-31T04:07:26.274Z,15.17
2023-07-31T04:08:26.750Z,15.18
2023-07-31T04:09:27.058Z,15.15
2023-07-31T04:10:27.739Z,15.17
2023-07-31T04:11:28.240Z,15.14
2023-07-31T04:12:29.401Z,15.19
2023-07-31T04:13:29.926Z,15.19
2023-07-31T04:14:30.363Z,15.17
2023-07-31T04:15:31.079Z,15.12
2023-07-31T04:16:31.677Z,15.11
2023-07-31T04:17:32.361Z,15.14
2023-07-31T04:18:33.011Z,15.08
2023-07-31T04:19:34.120Z,15.19
2023-07-31T04:20:34.989Z,15.18
2023-07-31T04:21:35.455Z,15.14
2023-07-31T04:22:36.215Z,15.19
2023-07-31T04:23:37.385Z,15.17
2023-07-31T04:24:37.660Z,15.22
2023-07-31T04:25:38.597Z,15.17
2023-07-31T04:26:39.959Z,15.15
2023-07-31T04:27:39.712Z,15.15
2023-07-31T04:28:40.616Z,15.18
2023-07-31T04:29:41.432Z,15.15
2023-07-31T04:30:42.167Z,15.12
2023-07-31T04:31:45.490Z,15.18
2023-07-31T04:33:44.310Z,15.3
2023-07-31T04:34:44.548Z,15.25
2023-07-31T04:35:45.297Z,15.29
2023-07-31T04:36:46.165Z,15.26
2023-07-31T04:37:46.101Z,15.3
2023-07-31T04:38:47.020Z,15.36
2023-07-31T04:39:47.734Z,15.3
2023-07-31T04:40:48.473Z,15.3
2023-07-31T04:41:49.029Z,15.3
2023-07-31T04:42:49.750Z,15.35
2023-07-31T04:43:50.140Z,15.36
2023-07-31T04:44:49.737Z,15.3
2023-07-31T04:45:50.627Z,15.47
2023-07-31T04:46:51.608Z,15.43
2023-07-31T04:47:51.769Z,15.41
2023-07-31T04:48:51.842Z,15.39
2023-07-31T04:49:52.334Z,15.45
2023-07-31T04:50:53.245Z,15.47
2023-07-31T04:51:53.980Z,15.36
2023-07-31T04:52:54.902Z,15.48
2023-07-31T04:53:55.417Z,15.45
2023-07-31T04:54:56.030Z,15.37
2023-07-31T04:55:56.638Z,15.57
2023-07-31T04:56:57.550Z,15.52
2023-07-31T04:57:58.549Z,15.52
2023-07-31T04:58:59.679Z,15.62
2023-07-31T05:00:00.435Z,15.6
2023-07-31T05:01:01.168Z,15.52
2023-07-31T05:02:01.998Z,15.59
2023-07-31T05:03:03.566Z,15.62
2023-07-31T05:04:03.465Z,15.65
2023-07-31T05:05:04.406Z,15.67
2023-07-31T05:06:05.337Z,15.73
2023-07-31T05:07:05.071Z,15.72
2023-07-31T05:08:05.662Z,15.67
2023-07-31T05:09:06.375Z,15.75
2023-07-31T05:10:07.216Z,15.78
2023-07-31T05:11:07.744Z,15.72
2023-07-31T05:12:08.709Z,15.76
2023-07-31T05:13:09.271Z,15.7
2023-07-31T05:14:09.280Z,15.76
2023-07-31T05:15:10.164Z,15.87
2023-07-31T05:16:11.192Z,15.87
2023-07-31T05:17:12.224Z,15.88
2023-07-31T05:18:13.349Z,15.92
2023-07-31T05:19:13.080Z,15.94
2023-07-31T05:20:14.193Z,15.94
2023-07-31T05:21:15.156Z,15.99
2023-07-31T05:22:15.674Z,15.96
2023-07-31T05:23:16.626Z,15.99
2023-07-31T05:24:17.336Z,16.06
2023-07-31T05:25:17.924Z,16.06
2023-07-31T05:26:19.933Z,16.02
2023-07-31T05:27:19.283Z,16.02
2023-07-31T05:28:20.076Z,16.16
2023-07-31T05:29:21.078Z,16.18
2023-07-31T05:30:21.585Z,16.17
2023-07-31T05:31:22.524Z,16.25
2023-07-31T05:32:23.430Z,16.29
2023-07-31T05:33:23.854Z,16.28
2023-07-31T05:34:24.267Z,16.28
2023-07-31T05:35:24.661Z,16.41
2023-07-31T05:36:25.351Z,16.4
2023-07-31T05:37:25.678Z,16.41
2023-07-31T05:38:26.393Z,16.39
2023-07-31T05:39:27.529Z,16.44
2023-07-31T05:40:27.645Z,16.34
2023-07-31T05:41:27.982Z,16.41
2023-07-31T05:42:28.884Z,16.44
2023-07-31T05:43:29.799Z,16.41
2023-07-31T05:44:30.567Z,16.46
2023-07-31T05:45:30.960Z,16.43
2023-07-31T05:46:32.075Z,16.54
2023-07-31T05:47:32.264Z,16.5
2023-07-31T05:48:33.333Z,16.54
2023-07-31T05:49:33.842Z,16.58
2023-07-31T05:50:34.376Z,16.57
2023-07-31T05:51:34.993Z,16.61
2023-07-31T05:52:35.941Z,16.58
2023-07-31T05:53:37.003Z,16.58
2023-07-31T05:54:37.925Z,16.57
2023-07-31T05:55:38.411Z,16.58
2023-07-31T05:56:39.823Z,16.58
2023-07-31T05:57:39.479Z,16.66
2023-07-31T05:58:39.811Z,16.61
2023-07-31T05:59:40.530Z,16.66
2023-07-31T06:00:41.214Z,16.65
2023-07-31T06:01:42.049Z,16.65
2023-07-31T06:02:42.916Z,16.77
2023-07-31T06:03:44.461Z,16.77
2023-07-31T06:04:44.744Z,16.79
2023-07-31T06:05:45.425Z,16.8
2023-07-31T06:06:46.706Z,16.8
2023-07-31T06:07:46.614Z,16.86
2023-07-31T06:08:47.166Z,16.98
2023-07-31T06:09:47.873Z,17.07
2023-07-31T06:10:48.565Z,17.12
2023-07-31T06:11:48.968Z,17.19
2023-07-31T06:12:49.690Z,17.22
2023-07-31T06:13:50.302Z,17.22
2023-07-31T06:14:50.063Z,17.3
2023-07-31T06:15:51.544Z,17.37
2023-07-31T06:16:52.519Z,17.32
2023-07-31T06:17:54.507Z,17.37
2023-07-31T06:18:54.492Z,17.44
2023-07-31T06:19:55.021Z,17.49
2023-07-31T06:20:55.543Z,17.41
2023-07-31T06:21:56.103Z,17.52
2023-07-31T06:22:56.824Z,17.56
2023-07-31T06:23:57.554Z,17.54
2023-07-31T06:24:58.291Z,17.66
2023-07-31T06:25:58.876Z,17.65
2023-07-31T06:26:59.596Z,17.71
2023-07-31T06:27:59.982Z,17.75
2023-07-31T06:29:00.903Z,17.73
2023-07-31T06:30:01.885Z,17.78
2023-07-31T06:31:02.581Z,17.9
2023-07-31T06:32:04.847Z,17.9
2023-07-31T06:33:03.964Z,17.93
2023-07-31T06:35:05.931Z,18.06
2023-07-31T06:36:06.857Z,18.05
2023-07-31T06:37:07.636Z,18.16
2023-07-31T06:38:08.182Z,18.27
2023-07-31T06:39:09.319Z,18.21
2023-07-31T06:40:09.869Z,18.24
2023-07-31T06:41:10.000Z,18.3
2023-07-31T06:42:10.727Z,18.28
2023-07-31T06:43:10.829Z,18.42
2023-07-31T06:44:11.724Z,18.41
2023-07-31T06:45:12.601Z,18.3
2023-07-31T06:46:13.422Z,18.24
2023-07-31T06:47:14.169Z,18.28
2023-07-31T06:48:14.771Z,18.36
2023-07-31T06:49:17.967Z,18.41
2023-07-31T06:50:16.185Z,18.31
2023-07-31T06:51:17.120Z,18.43
2023-07-31T06:52:18.126Z,18.43
2023-07-31T06:53:19.044Z,18.49
2023-07-31T06:54:19.826Z,18.45
2023-07-31T06:55:20.436Z,18.51
2023-07-31T06:56:21.041Z,18.55
2023-07-31T06:57:21.974Z,18.55
2023-07-31T06:58:22.716Z,18.68
2023-07-31T06:59:23.737Z,18.67
2023-07-31T07:00:24.699Z,18.71
2023-07-31T07:01:24.703Z,18.74
2023-07-31T07:02:25.433Z,18.74
2023-07-31T07:03:26.472Z,18.89
2023-07-31T07:04:27.396Z,19
2023-07-31T07:05:28.893Z,19.07
2023-07-31T07:06:29.024Z,19.23
2023-07-31T07:07:30.405Z,19.23
2023-07-31T07:08:33.074Z,19.3
2023-07-31T07:10:31.864Z,19.48
2023-07-31T07:11:32.818Z,19.49
2023-07-31T07:12:33.765Z,19.52
2023-07-31T07:13:34.338Z,19.49
2023-07-31T07:14:35.476Z,19.47
2023-07-31T07:15:35.525Z,19.48
2023-07-31T07:16:36.255Z,19.57
2023-07-31T07:17:37.696Z,19.49
2023-07-31T07:18:50.472Z,19.53
2023-07-31T07:19:38.900Z,19.52
2023-07-31T07:20:39.241Z,19.52
2023-07-31T07:21:39.755Z,19.56
2023-07-31T07:22:39.897Z,19.57
2023-07-31T07:23:40.813Z,19.52
2023-07-31T07:24:40.757Z,19.52
2023-07-31T07:25:41.859Z,19.52
2023-07-31T07:26:42.791Z,19.57
2023-07-31T07:27:42.999Z,19.62
2023-07-31T07:28:43.893Z,19.63
2023-07-31T07:29:44.552Z,19.64
2023-07-31T07:30:45.528Z,19.81
2023-07-31T07:31:46.432Z,19.74
2023-07-31T07:32:47.430Z,19.85
2023-07-31T07:33:47.624Z,19.79
2023-07-31T07:34:47.915Z,19.97
2023-07-31T07:35:49.219Z,19.93
2023-07-31T07:37:53.476Z,20.03
2023-07-31T07:38:50.513Z,20.04
2023-07-31T07:39:51.120Z,20.21
2023-07-31T07:40:52.186Z,20.19
2023-07-31T07:41:53.347Z,20.26
2023-07-31T07:42:54.113Z,20.26
2023-07-31T07:43:54.821Z,20.3
2023-07-31T07:44:55.788Z,20.3
2023-07-31T07:45:56.758Z,20.3
2023-07-31T07:46:58.082Z,20.3
2023-07-31T07:47:58.355Z,20.33
2023-07-31T07:48:59.489Z,20.26
2023-07-31T07:50:00.409Z,20.3
2023-07-31T07:51:00.821Z,20.36
2023-07-31T07:52:01.547Z,20.34
2023-07-31T07:53:02.137Z,20.49
2023-07-31T07:54:03.081Z,20.63
2023-07-31T07:55:03.906Z,20.82
2023-07-31T07:56:04.625Z,20.98
2023-07-31T07:57:05.496Z,21.04
2023-07-31T07:58:06.234Z,21.13
2023-07-31T07:59:06.927Z,21.22
2023-07-31T08:00:07.409Z,21.3
2023-07-31T08:01:08.628Z,21.48
2023-07-31T08:02:09.546Z,21.47
2023-07-31T08:03:10.855Z,21.6
2023-07-31T08:04:11.009Z,21.74
2023-07-31T08:05:11.602Z,22.01
2023-07-31T08:06:13.273Z,22.3
2023-07-31T08:07:12.917Z,22.46
2023-07-31T08:08:13.622Z,22.77
2023-07-31T08:09:14.531Z,22.96
2023-07-31T08:10:15.485Z,23.01
2023-07-31T08:11:16.160Z,23.07
2023-07-31T08:12:17.285Z,23.11
2023-07-31T08:13:18.817Z,23.04
2023-07-31T08:15:18.116Z,22.92
2023-07-31T08:16:18.692Z,22.93
2023-07-31T08:18:19.777Z,23.1
2023-07-31T08:19:20.381Z,23.07
2023-07-31T08:20:20.923Z,23.13
2023-07-31T08:21:21.262Z,23.1
2023-07-31T08:22:21.815Z,23.1
2023-07-31T08:23:22.152Z,23.13
2023-07-31T08:24:24.062Z,23.17
2023-07-31T08:26:25.252Z,23.26
2023-07-31T08:27:24.840Z,23.4
2023-07-31T08:29:25.885Z,23.64
2023-07-31T08:30:28.462Z,23.82
2023-07-31T08:32:28.544Z,23.81
2023-07-31T08:33:29.409Z,23.81
2023-07-31T08:34:30.362Z,23.71
2023-07-31T08:35:30.933Z,23.7
2023-07-31T08:36:34.446Z,23.67
2023-07-31T08:38:33.199Z,23.34
2023-07-31T08:39:34.115Z,23.14
2023-07-31T08:40:35.081Z,22.99
2023-07-31T08:41:35.796Z,22.83
2023-07-31T08:42:37.697Z,22.81
2023-07-31T08:44:38.280Z,22.74
2023-07-31T08:45:39.030Z,22.71
2023-07-31T08:46:40.049Z,22.95
2023-07-31T08:47:40.563Z,22.84
2023-07-31T08:48:41.216Z,22.81
2023-07-31T08:49:42.162Z,22.71
2023-07-31T08:50:42.881Z,22.73
2023-07-31T08:51:44.231Z,22.63
2023-07-31T08:52:43.949Z,22.52
2023-07-31T08:53:44.252Z,22.47
2023-07-31T08:54:45.032Z,22.55
2023-07-31T08:55:46.059Z,22.55
2023-07-31T08:56:46.372Z,22.52
2023-07-31T08:57:46.719Z,22.58
2023-07-31T08:58:47.336Z,22.76
2023-07-31T09:01:49.688Z,22.83
2023-07-31T09:02:49.951Z,22.93
2023-07-31T09:03:51.097Z,22.96
2023-07-31T09:04:50.689Z,23.11
2023-07-31T09:05:51.820Z,23.14
2023-07-31T09:06:52.654Z,23.23
2023-07-31T09:07:52.858Z,23.16
2023-07-31T09:08:53.404Z,23.21
2023-07-31T09:09:54.259Z,23.13
2023-07-31T09:10:55.100Z,23.08
2023-07-31T09:11:56.260Z,22.92
2023-07-31T09:12:57.000Z,22.77
2023-07-31T09:13:57.643Z,22.58
2023-07-31T09:14:58.409Z,22.46
2023-07-31T09:15:58.661Z,22.36
2023-07-31T09:16:59.786Z,22.36
2023-07-31T09:17:59.932Z,22.46
2023-07-31T09:18:59.763Z,22.36
2023-07-31T09:20:00.745Z,22.52
2023-07-31T09:21:01.854Z,22.76
2023-07-31T09:22:03.091Z,22.93
2023-07-31T09:23:02.927Z,23.1
2023-07-31T09:24:03.919Z,23.45
2023-07-31T09:25:04.087Z,23.62
2023-07-31T09:26:04.734Z,23.88
2023-07-31T09:27:05.993Z,24.28
2023-07-31T09:28:06.587Z,24.46
2023-07-31T09:29:06.554Z,24.68
2023-07-31T09:30:06.590Z,24.88
2023-07-31T09:31:06.607Z,24.96
2023-07-31T09:32:07.213Z,25.12
2023-07-31T09:33:08.218Z,25.15
2023-07-31T09:34:09.339Z,25.11
2023-07-31T09:35:10.325Z,24.96
2023-07-31T09:36:14.197Z,24.78
2023-07-31T09:37:12.383Z,24.56
2023-07-31T09:38:12.679Z,24.5
2023-07-31T09:39:13.296Z,24.28
2023-07-31T09:40:14.448Z,24.13
2023-07-31T09:41:14.432Z,24.03
2023-07-31T09:42:15.247Z,23.91
2023-07-31T09:43:16.223Z,23.92
2023-07-31T09:44:17.169Z,23.88
2023-07-31T09:45:32.087Z,23.91
2023-07-31T09:46:19.045Z,23.95
2023-07-31T09:47:19.760Z,23.86
2023-07-31T09:48:20.395Z,23.94
2023-07-31T09:49:20.893Z,23.91
2023-07-31T09:50:21.746Z,24.03
2023-07-31T09:51:22.106Z,23.92
2023-07-31T09:52:23.363Z,23.92
2023-07-31T09:53:23.510Z,23.94
2023-07-31T09:54:24.289Z,23.86
2023-07-31T09:55:24.853Z,23.81
2023-07-31T09:56:25.386Z,23.81
2023-07-31T09:57:26.372Z,23.64
2023-07-31T09:58:27.079Z,23.59
2023-07-31T09:59:30.442Z,23.49
2023-07-31T10:01:29.288Z,23.58
2023-07-31T10:02:29.959Z,23.51
2023-07-31T10:03:30.282Z,23.51
2023-07-31T10:04:30.438Z,23.52
2023-07-31T10:05:31.336Z,23.52
2023-07-31T10:06:32.094Z,23.58
2023-07-31T10:07:33.336Z,23.62
2023-07-31T10:08:34.117Z,23.62
2023-07-31T10:09:35.302Z,23.67
2023-07-31T10:10:36.039Z,23.84
2023-07-31T10:11:36.778Z,24.03
2023-07-31T10:12:37.717Z,24.47
2023-07-31T10:13:38.259Z,24.84
2023-07-31T10:14:39.395Z,25.11
2023-07-31T10:15:40.171Z,25.4
2023-07-31T10:16:41.846Z,25.62
2023-07-31T10:17:41.765Z,25.78
2023-07-31T10:18:41.866Z,26.01
2023-07-31T10:19:42.809Z,26.29
2023-07-31T10:20:43.536Z,26.61
2023-07-31T10:21:44.097Z,26.56
2023-07-31T10:22:45.481Z,26.61
2023-07-31T10:23:45.440Z,26.51
2023-07-31T10:24:46.155Z,26.41
2023-07-31T10:25:46.915Z,26.26
2023-07-31T10:26:47.661Z,26.22
2023-07-31T10:27:47.807Z,26.01
2023-07-31T10:28:48.288Z,25.8
2023-07-31T10:29:49.229Z,25.63
2023-07-31T10:30:50.172Z,25.41
2023-07-31T10:31:50.519Z,25.22
2023-07-31T10:32:51.216Z,25.12
2023-07-31T10:33:51.204Z,24.92
2023-07-31T10:34:52.336Z,24.81
2023-07-31T10:35:52.834Z,24.92
2023-07-31T10:36:53.785Z,25.06
2023-07-31T10:37:54.816Z,25.3
2023-07-31T10:38:54.975Z,25.43
2023-07-31T10:39:55.485Z,25.71
2023-07-31T10:40:56.213Z,25.91
2023-07-31T10:41:56.736Z,25.68
2023-07-31T10:42:57.358Z,25.68
2023-07-31T10:43:57.675Z,25.58
2023-07-31T10:44:58.201Z,25.34
2023-07-31T10:45:58.197Z,25.16
2023-07-31T10:46:59.248Z,24.85
2023-07-31T10:48:00.297Z,24.66
2023-07-31T10:49:00.223Z,24.56
2023-07-31T10:50:01.198Z,24.56
2023-07-31T10:51:02.186Z,24.55
2023-07-31T10:52:02.096Z,24.58
2023-07-31T10:53:03.361Z,24.58
2023-07-31T10:54:03.875Z,24.5
2023-07-31T10:55:04.606Z,24.71
2023-07-31T10:56:05.530Z,24.84
2023-07-31T10:57:06.058Z,25.03
2023-07-31T10:58:07.216Z,25.03
2023-07-31T10:59:09.579Z,25.16
2023-07-31T11:01:09.405Z,24.97
2023-07-31T11:02:09.266Z,24.88
2023-07-31T11:03:10.522Z,24.59
2023-07-31T11:04:10.587Z,24.62
2023-07-31T11:05:11.754Z,24.62
2023-07-31T11:06:11.739Z,24.55
2023-07-31T11:07:12.678Z,24.53
2023-07-31T11:08:13.257Z,24.56
2023-07-31T11:09:14.289Z,24.62
2023-07-31T11:10:14.212Z,24.61
2023-07-31T11:11:14.673Z,24.63
2023-07-31T11:12:15.070Z,24.85
2023-07-31T11:13:15.816Z,25.04
2023-07-31T11:14:16.171Z,25.14
2023-07-31T11:15:17.146Z,25.25
2023-07-31T11:16:18.248Z,25.26
2023-07-31T11:17:18.453Z,25.29
2023-07-31T11:18:19.477Z,25.33
2023-07-31T11:19:19.990Z,25.25
2023-07-31T11:20:20.533Z,25.25
2023-07-31T11:21:21.509Z,25.36
2023-07-31T11:22:22.161Z,25.54
2023-07-31T11:23:23.333Z,25.71
2023-07-31T11:24:23.491Z,25.93
2023-07-31T11:25:24.347Z,26.1
2023-07-31T11:26:25.075Z,26.11
2023-07-31T11:27:25.952Z,26.19
2023-07-31T11:28:26.214Z,26.44
2023-07-31T11:29:27.258Z,26.44
2023-07-31T11:30:27.762Z,26.55
2023-07-31T11:31:28.447Z,26.67
2023-07-31T11:32:28.954Z,26.66
2023-07-31T11:33:30.161Z,26.85
2023-07-31T11:34:30.182Z,26.92
2023-07-31T11:35:31.366Z,27.1
2023-07-31T11:36:32.088Z,27.25
2023-07-31T11:37:32.148Z,27.4
2023-07-31T11:38:33.178Z,27.47
2023-07-31T11:39:33.770Z,27.45
2023-07-31T11:40:38.454Z,27.64
2023-07-31T11:42:36.107Z,27.83
2023-07-31T11:43:36.484Z,27.86
2023-07-31T11:44:37.147Z,27.98
2023-07-31T11:45:37.489Z,27.91
2023-07-31T11:46:39.433Z,28.04
2023-07-31T11:47:39.607Z,28.15
2023-07-31T11:48:39.910Z,28.04
2023-07-31T11:49:42.885Z,28.18
2023-07-31T11:51:41.709Z,28.43
2023-07-31T11:52:42.661Z,28.4
2023-07-31T11:53:43.885Z,28.38
2023-07-31T11:54:43.890Z,28.33
2023-07-31T11:55:44.717Z,28.19
2023-07-31T11:56:45.960Z,28.18
2023-07-31T11:57:46.235Z,27.93
2023-07-31T11:58:46.462Z,27.75
2023-07-31T11:59:47.547Z,27.79
2023-07-31T12:00:47.670Z,27.85
2023-07-31T12:01:48.403Z,27.98
2023-07-31T12:02:49.544Z,28.03
2023-07-31T12:03:49.738Z,28.12
2023-07-31T12:04:49.828Z,28.28
2023-07-31T12:05:50.416Z,28.34
2023-07-31T12:06:50.758Z,28.45
2023-07-31T12:07:51.063Z,28.41
2023-07-31T12:08:52.087Z,28.46
2023-07-31T12:09:52.728Z,28.6
2023-07-31T12:10:53.481Z,28.57
2023-07-31T12:11:54.254Z,28.5
2023-07-31T12:12:54.765Z,28.57
2023-07-31T12:13:55.729Z,28.52
2023-07-31T12:14:56.431Z,28.55
2023-07-31T12:15:57.293Z,28.7
2023-07-31T12:16:58.008Z,28.57
2023-07-31T12:17:58.642Z,28.68
2023-07-31T12:18:59.556Z,28.67
2023-07-31T12:20:02.300Z,28.78
2023-07-31T12:20:59.965Z,28.9
2023-07-31T12:22:01.300Z,28.97
2023-07-31T12:23:01.396Z,29.12
2023-07-31T12:24:01.622Z,29.15
2023-07-31T12:25:01.363Z,29.13
2023-07-31T12:26:02.153Z,29.32
2023-07-31T12:27:02.895Z,29.46
2023-07-31T12:28:03.775Z,29.57
2023-07-31T12:29:03.896Z,29.71
2023-07-31T12:30:04.344Z,29.67
2023-07-31T12:31:04.876Z,29.69
2023-07-31T12:32:05.585Z,29.8
2023-07-31T12:33:06.762Z,29.71
2023-07-31T12:34:07.620Z,29.68
2023-07-31T12:35:08.559Z,29.53
2023-07-31T12:36:09.555Z,29.55
2023-07-31T12:37:10.078Z,29.58
2023-07-31T12:38:10.631Z,29.59
2023-07-31T12:39:11.624Z,29.47
2023-07-31T12:40:17.724Z,29.49
2023-07-31T12:42:13.017Z,29.47
2023-07-31T12:43:13.830Z,29.4
2023-07-31T12:44:15.045Z,29.43
2023-07-31T12:45:15.230Z,29.44
2023-07-31T12:46:15.871Z,29.44
2023-07-31T12:47:15.883Z,29.42
2023-07-31T12:48:16.963Z,29.46
2023-07-31T12:49:16.936Z,29.28
2023-07-31T12:50:17.892Z,29.3
2023-07-31T12:51:19.040Z,29.12
2023-07-31T12:52:19.719Z,29.13
2023-07-31T12:53:20.457Z,28.96
2023-07-31T12:54:21.482Z,28.93
2023-07-31T12:55:21.621Z,28.87
2023-07-31T12:56:22.568Z,28.8
2023-07-31T12:57:23.528Z,28.75
2023-07-31T12:58:23.659Z,28.64
2023-07-31T12:59:24.605Z,28.64
2023-07-31T13:00:26.091Z,28.55
2023-07-31T13:01:26.172Z,28.43
2023-07-31T13:02:29.368Z,28.34
2023-07-31T13:04:28.147Z,28.08
2023-07-31T13:05:29.125Z,28.08
2023-07-31T13:06:29.882Z,28.13
2023-07-31T13:07:30.957Z,27.95
2023-07-31T13:08:31.900Z,27.91
2023-07-31T13:09:32.076Z,27.79
2023-07-31T13:10:32.024Z,27.78
2023-07-31T13:11:33.199Z,27.64
2023-07-31T13:12:34.138Z,27.63
2023-07-31T13:13:36.470Z,27.61
2023-07-31T13:15:36.190Z,27.57
2023-07-31T13:16:36.137Z,27.43
2023-07-31T13:17:36.885Z,27.33
2023-07-31T13:18:37.763Z,27.28
2023-07-31T13:19:38.328Z,27.28
2023-07-31T13:20:39.215Z,27.34
2023-07-31T13:21:40.172Z,27.26
2023-07-31T13:22:40.713Z,27.22
2023-07-31T13:23:41.587Z,27.25
2023-07-31T13:24:42.632Z,27.15
2023-07-31T13:25:43.381Z,27.19
2023-07-31T13:26:44.455Z,27.13
2023-07-31T13:27:45.190Z,27.05
2023-07-31T13:28:46.295Z,27.07